sensor_id;sensor_type;location;lat;lon;timestamp;P1;durP1;ratioP1;P2;durP2;ratioP2
10463;SDS011;5279;42.048;24.638;2023-12-04T00:02:24;3.80;;;3.43;;
10463;SDS011;5279;42.048;24.638;2023-12-04T00:04:51;4.80;;;4.10;;
10463;SDS011;5279;42.048;24.638;2023-12-04T00:07:17;5.33;;;4.67;;
10463;SDS011;5279;42.048;24.638;2023-12-04T00:09:44;4.70;;;4.23;;
10463;SDS011;5279;42.048;24.638;2023-12-04T00:12:11;5.87;;;4.40;;
10463;SDS011;5279;42.048;24.638;2023-12-04T00:14:39;6.33;;;5.00;;
10463;SDS011;5279;42.048;24.638;2023-12-04T00:17:06;4.37;;;3.67;;
10463;SDS011;5279;42.048;24.638;2023-12-04T00:19:32;5.83;;;4.33;;
10463;SDS011;5279;42.048;24.638;2023-12-04T00:21:59;5.50;;;4.53;;
10463;SDS011;5279;42.048;24.638;2023-12-04T00:24:26;4.83;;;4.37;;
10463;SDS011;5279;42.048;24.638;2023-12-04T00:26:52;5.93;;;4.20;;
10463;SDS011;5279;42.048;24.638;2023-12-04T00:29:19;5.33;;;4.50;;
10463;SDS011;5279;42.048;24.638;2023-12-04T00:31:47;5.53;;;4.03;;
10463;SDS011;5279;42.048;24.638;2023-12-04T00:34:14;4.77;;;4.30;;
10463;SDS011;5279;42.048;24.638;2023-12-04T00:36:40;5.60;;;4.73;;
10463;SDS011;5279;42.048;24.638;2023-12-04T00:39:07;7.57;;;4.67;;
10463;SDS011;5279;42.048;24.638;2023-12-04T00:41:34;7.10;;;4.83;;
10463;SDS011;5279;42.048;24.638;2023-12-04T00:44:00;7.27;;;5.20;;
10463;SDS011;5279;42.048;24.638;2023-12-04T00:46:27;6.10;;;4.40;;
10463;SDS011;5279;42.048;24.638;2023-12-04T00:48:55;6.13;;;4.43;;
10463;SDS011;5279;42.048;24.638;2023-12-04T00:51:22;5.73;;;4.70;;
10463;SDS011;5279;42.048;24.638;2023-12-04T00:53:48;5.17;;;4.30;;
10463;SDS011;5279;42.048;24.638;2023-12-04T00:56:15;5.87;;;4.47;;
10463;SDS011;5279;42.048;24.638;2023-12-04T00:58:43;4.97;;;4.20;;
10463;SDS011;5279;42.048;24.638;2023-12-04T01:01:10;5.10;;;4.60;;
10463;SDS011;5279;42.048;24.638;2023-12-04T01:03:37;4.37;;;3.97;;
10463;SDS011;5279;42.048;24.638;2023-12-04T01:06:06;4.87;;;4.17;;
10463;SDS011;5279;42.048;24.638;2023-12-04T01:08:33;6.27;;;4.30;;
10463;SDS011;5279;42.048;24.638;2023-12-04T01:10:59;4.20;;;3.80;;
10463;SDS011;5279;42.048;24.638;2023-12-04T01:13:26;5.97;;;4.03;;
10463;SDS011;5279;42.048;24.638;2023-12-04T01:15:53;4.63;;;3.67;;
10463;SDS011;5279;42.048;24.638;2023-12-04T01:18:19;5.07;;;4.00;;
10463;SDS011;5279;42.048;24.638;2023-12-04T01:20:46;4.10;;;3.37;;
10463;SDS011;5279;42.048;24.638;2023-12-04T01:23:14;4.67;;;4.13;;
10463;SDS011;5279;42.048;24.638;2023-12-04T01:25:41;4.73;;;3.37;;
10463;SDS011;5279;42.048;24.638;2023-12-04T01:28:09;5.13;;;3.90;;
10463;SDS011;5279;42.048;24.638;2023-12-04T01:30:36;4.23;;;3.60;;
10463;SDS011;5279;42.048;24.638;2023-12-04T01:33:03;3.07;;;2.77;;
10463;SDS011;5279;42.048;24.638;2023-12-04T01:35:30;4.80;;;3.70;;
10463;SDS011;5279;42.048;24.638;2023-12-04T01:37:55;3.87;;;3.23;;
10463;SDS011;5279;42.048;24.638;2023-12-04T01:40:23;6.30;;;4.07;;
10463;SDS011;5279;42.048;24.638;2023-12-04T01:42:50;4.20;;;3.73;;
10463;SDS011;5279;42.048;24.638;2023-12-04T01:45:17;3.77;;;3.00;;
10463;SDS011;5279;42.048;24.638;2023-12-04T01:47:44;3.83;;;3.50;;
10463;SDS011;5279;42.048;24.638;2023-12-04T01:50:11;4.43;;;3.60;;
10463;SDS011;5279;42.048;24.638;2023-12-04T01:52:39;3.90;;;3.50;;
10463;SDS011;5279;42.048;24.638;2023-12-04T01:55:06;4.57;;;3.30;;
10463;SDS011;5279;42.048;24.638;2023-12-04T01:57:37;3.53;;;3.00;;
10463;SDS011;5279;42.048;24.638;2023-12-04T02:00:04;4.43;;;3.47;;
10463;SDS011;5279;42.048;24.638;2023-12-04T02:02:36;4.00;;;3.60;;
10463;SDS011;5279;42.048;24.638;2023-12-04T02:05:03;4.20;;;3.80;;
10463;SDS011;5279;42.048;24.638;2023-12-04T02:07:31;4.30;;;3.70;;
10463;SDS011;5279;42.048;24.638;2023-12-04T02:09:59;4.07;;;3.67;;
10463;SDS011;5279;42.048;24.638;2023-12-04T02:12:25;3.40;;;3.10;;
10463;SDS011;5279;42.048;24.638;2023-12-04T02:14:53;4.03;;;3.50;;
10463;SDS011;5279;42.048;24.638;2023-12-04T02:17:20;3.67;;;3.30;;
10463;SDS011;5279;42.048;24.638;2023-12-04T02:19:49;12.87;;;3.57;;
10463;SDS011;5279;42.048;24.638;2023-12-04T02:22:15;3.93;;;3.50;;
10463;SDS011;5279;42.048;24.638;2023-12-04T02:24:44;5.27;;;3.43;;
10463;SDS011;5279;42.048;24.638;2023-12-04T02:27:12;3.50;;;3.20;;
10463;SDS011;5279;42.048;24.638;2023-12-04T02:29:49;4.37;;;3.40;;
10463;SDS011;5279;42.048;24.638;2023-12-04T02:32:19;3.43;;;3.10;;
10463;SDS011;5279;42.048;24.638;2023-12-04T02:34:48;3.40;;;2.97;;
10463;SDS011;5279;42.048;24.638;2023-12-04T02:37:16;3.10;;;2.70;;
10463;SDS011;5279;42.048;24.638;2023-12-04T02:39:45;3.90;;;3.50;;
10463;SDS011;5279;42.048;24.638;2023-12-04T02:42:13;3.47;;;3.17;;
10463;SDS011;5279;42.048;24.638;2023-12-04T02:44:42;4.63;;;3.33;;
10463;SDS011;5279;42.048;24.638;2023-12-04T02:47:09;3.67;;;2.97;;
10463;SDS011;5279;42.048;24.638;2023-12-04T02:49:35;3.40;;;2.83;;
10463;SDS011;5279;42.048;24.638;2023-12-04T02:52:02;3.13;;;2.83;;
10463;SDS011;5279;42.048;24.638;2023-12-04T02:54:29;3.30;;;2.83;;
10463;SDS011;5279;42.048;24.638;2023-12-04T02:56:57;3.63;;;3.17;;
10463;SDS011;5279;42.048;24.638;2023-12-04T02:59:24;3.90;;;2.93;;
10463;SDS011;5279;42.048;24.638;2023-12-04T03:01:50;4.17;;;2.93;;
10463;SDS011;5279;42.048;24.638;2023-12-04T03:04:18;3.37;;;3.07;;
10463;SDS011;5279;42.048;24.638;2023-12-04T03:06:45;4.07;;;3.13;;
10463;SDS011;5279;42.048;24.638;2023-12-04T03:09:11;3.30;;;3.00;;
10463;SDS011;5279;42.048;24.638;2023-12-04T03:11:39;4.30;;;3.27;;
10463;SDS011;5279;42.048;24.638;2023-12-04T03:14:07;4.90;;;3.30;;
10463;SDS011;5279;42.048;24.638;2023-12-04T03:16:34;2.70;;;2.50;;
10463;SDS011;5279;42.048;24.638;2023-12-04T03:19:01;3.33;;;3.03;;
10463;SDS011;5279;42.048;24.638;2023-12-04T03:21:27;3.40;;;3.10;;
10463;SDS011;5279;42.048;24.638;2023-12-04T03:23:54;3.37;;;2.90;;
10463;SDS011;5279;42.048;24.638;2023-12-04T03:26:21;3.33;;;2.60;;
10463;SDS011;5279;42.048;24.638;2023-12-04T03:28:48;3.93;;;2.63;;
10463;SDS011;5279;42.048;24.638;2023-12-04T03:31:16;3.17;;;2.70;;
10463;SDS011;5279;42.048;24.638;2023-12-04T03:33:42;3.57;;;3.27;;
10463;SDS011;5279;42.048;24.638;2023-12-04T03:36:09;3.27;;;2.90;;
10463;SDS011;5279;42.048;24.638;2023-12-04T03:38:36;3.33;;;2.90;;
10463;SDS011;5279;42.048;24.638;2023-12-04T03:41:03;3.00;;;2.73;;
10463;SDS011;5279;42.048;24.638;2023-12-04T03:43:30;3.30;;;2.90;;
10463;SDS011;5279;42.048;24.638;2023-12-04T03:45:56;3.03;;;2.50;;
10463;SDS011;5279;42.048;24.638;2023-12-04T03:48:24;3.23;;;2.93;;
10463;SDS011;5279;42.048;24.638;2023-12-04T03:50:51;3.83;;;2.63;;
10463;SDS011;5279;42.048;24.638;2023-12-04T03:53:18;2.93;;;2.43;;
10463;SDS011;5279;42.048;24.638;2023-12-04T03:55:44;3.57;;;3.07;;
10463;SDS011;5279;42.048;24.638;2023-12-04T03:58:11;3.23;;;2.73;;
10463;SDS011;5279;42.048;24.638;2023-12-04T04:00:38;4.07;;;3.67;;
10463;SDS011;5279;42.048;24.638;2023-12-04T04:03:06;3.83;;;2.60;;
10463;SDS011;5279;42.048;24.638;2023-12-04T04:05:34;5.53;;;3.70;;
10463;SDS011;5279;42.048;24.638;2023-12-04T04:08:01;4.83;;;3.30;;
10463;SDS011;5279;42.048;24.638;2023-12-04T04:10:27;3.93;;;3.00;;
10463;SDS011;5279;42.048;24.638;2023-12-04T04:12:54;3.30;;;3.00;;
10463;SDS011;5279;42.048;24.638;2023-12-04T04:15:21;4.37;;;3.47;;
10463;SDS011;5279;42.048;24.638;2023-12-04T04:17:47;4.17;;;3.53;;
10463;SDS011;5279;42.048;24.638;2023-12-04T04:20:14;4.03;;;3.60;;
10463;SDS011;5279;42.048;24.638;2023-12-04T04:22:42;4.33;;;3.93;;
10463;SDS011;5279;42.048;24.638;2023-12-04T04:25:10;4.93;;;4.30;;
10463;SDS011;5279;42.048;24.638;2023-12-04T04:27:37;5.43;;;3.90;;
10463;SDS011;5279;42.048;24.638;2023-12-04T04:30:04;3.53;;;3.23;;
10463;SDS011;5279;42.048;24.638;2023-12-04T04:32:31;3.93;;;3.37;;
10463;SDS011;5279;42.048;24.638;2023-12-04T04:34:58;3.20;;;2.93;;
10463;SDS011;5279;42.048;24.638;2023-12-04T04:37:25;4.20;;;3.67;;
10463;SDS011;5279;42.048;24.638;2023-12-04T04:39:53;3.70;;;2.93;;
10463;SDS011;5279;42.048;24.638;2023-12-04T04:42:19;5.83;;;3.33;;
10463;SDS011;5279;42.048;24.638;2023-12-04T04:44:46;3.73;;;3.27;;
10463;SDS011;5279;42.048;24.638;2023-12-04T04:47:13;3.77;;;3.37;;
10463;SDS011;5279;42.048;24.638;2023-12-04T04:49:39;3.57;;;3.27;;
10463;SDS011;5279;42.048;24.638;2023-12-04T04:52:07;4.03;;;3.13;;
10463;SDS011;5279;42.048;24.638;2023-12-04T04:54:33;3.67;;;3.23;;
10463;SDS011;5279;42.048;24.638;2023-12-04T04:57:01;4.37;;;3.60;;
10463;SDS011;5279;42.048;24.638;2023-12-04T04:59:28;4.70;;;3.20;;
10463;SDS011;5279;42.048;24.638;2023-12-04T05:01:57;3.90;;;2.93;;
10463;SDS011;5279;42.048;24.638;2023-12-04T05:04:23;4.23;;;2.97;;
10463;SDS011;5279;42.048;24.638;2023-12-04T05:06:50;5.13;;;3.00;;
10463;SDS011;5279;42.048;24.638;2023-12-04T05:09:17;4.27;;;3.37;;
10463;SDS011;5279;42.048;24.638;2023-12-04T05:11:43;4.07;;;3.30;;
10463;SDS011;5279;42.048;24.638;2023-12-04T05:14:11;3.33;;;3.03;;
10463;SDS011;5279;42.048;24.638;2023-12-04T05:16:38;3.53;;;3.10;;
10463;SDS011;5279;42.048;24.638;2023-12-04T05:19:05;3.40;;;2.47;;
10463;SDS011;5279;42.048;24.638;2023-12-04T05:21:31;3.80;;;3.40;;
10463;SDS011;5279;42.048;24.638;2023-12-04T05:23:58;3.27;;;2.80;;
10463;SDS011;5279;42.048;24.638;2023-12-04T05:26:25;3.07;;;2.77;;
10463;SDS011;5279;42.048;24.638;2023-12-04T05:28:51;4.00;;;2.97;;
10463;SDS011;5279;42.048;24.638;2023-12-04T05:31:19;3.97;;;3.00;;
10463;SDS011;5279;42.048;24.638;2023-12-04T05:33:46;3.33;;;2.70;;
10463;SDS011;5279;42.048;24.638;2023-12-04T05:36:13;3.40;;;2.67;;
10463;SDS011;5279;42.048;24.638;2023-12-04T05:38:39;3.23;;;2.97;;
10463;SDS011;5279;42.048;24.638;2023-12-04T05:41:06;3.70;;;3.13;;
10463;SDS011;5279;42.048;24.638;2023-12-04T05:43:33;3.10;;;2.50;;
10463;SDS011;5279;42.048;24.638;2023-12-04T05:45:59;3.03;;;2.73;;
10463;SDS011;5279;42.048;24.638;2023-12-04T05:48:28;2.70;;;2.50;;
10463;SDS011;5279;42.048;24.638;2023-12-04T05:50:55;4.17;;;3.07;;
10463;SDS011;5279;42.048;24.638;2023-12-04T05:53:21;3.37;;;3.07;;
10463;SDS011;5279;42.048;24.638;2023-12-04T05:55:48;3.00;;;2.70;;
10463;SDS011;5279;42.048;24.638;2023-12-04T05:58:15;3.20;;;2.50;;
10463;SDS011;5279;42.048;24.638;2023-12-04T06:00:41;3.10;;;2.80;;
10463;SDS011;5279;42.048;24.638;2023-12-04T06:03:08;3.10;;;2.57;;
10463;SDS011;5279;42.048;24.638;2023-12-04T06:05:36;3.20;;;2.70;;
10463;SDS011;5279;42.048;24.638;2023-12-04T06:08:03;3.00;;;2.70;;
10463;SDS011;5279;42.048;24.638;2023-12-04T06:10:30;2.63;;;2.43;;
10463;SDS011;5279;42.048;24.638;2023-12-04T06:12:58;3.10;;;2.67;;
10463;SDS011;5279;42.048;24.638;2023-12-04T06:15:24;2.60;;;2.40;;
10463;SDS011;5279;42.048;24.638;2023-12-04T06:17:51;2.77;;;2.50;;
10463;SDS011;5279;42.048;24.638;2023-12-04T06:20:17;3.07;;;2.57;;
10463;SDS011;5279;42.048;24.638;2023-12-04T06:22:45;3.23;;;2.87;;
10463;SDS011;5279;42.048;24.638;2023-12-04T06:25:13;3.83;;;2.63;;
10463;SDS011;5279;42.048;24.638;2023-12-04T06:27:41;3.93;;;2.83;;
10463;SDS011;5279;42.048;24.638;2023-12-04T06:30:08;3.90;;;3.37;;
10463;SDS011;5279;42.048;24.638;2023-12-04T06:32:35;3.47;;;2.40;;
10463;SDS011;5279;42.048;24.638;2023-12-04T06:35:03;3.57;;;2.87;;
10463;SDS011;5279;42.048;24.638;2023-12-04T06:37:31;3.40;;;2.77;;
10463;SDS011;5279;42.048;24.638;2023-12-04T06:40:00;3.30;;;2.97;;
10463;SDS011;5279;42.048;24.638;2023-12-04T06:42:28;4.37;;;3.10;;
10463;SDS011;5279;42.048;24.638;2023-12-04T06:44:55;3.10;;;2.67;;
10463;SDS011;5279;42.048;24.638;2023-12-04T06:47:22;2.67;;;2.47;;
10463;SDS011;5279;42.048;24.638;2023-12-04T06:49:49;3.60;;;2.87;;
10463;SDS011;5279;42.048;24.638;2023-12-04T06:52:16;2.70;;;2.37;;
10463;SDS011;5279;42.048;24.638;2023-12-04T06:54:43;4.67;;;2.60;;
10463;SDS011;5279;42.048;24.638;2023-12-04T06:57:11;2.80;;;2.60;;
10463;SDS011;5279;42.048;24.638;2023-12-04T06:59:39;2.90;;;2.40;;
10463;SDS011;5279;42.048;24.638;2023-12-04T07:02:06;4.40;;;3.10;;
10463;SDS011;5279;42.048;24.638;2023-12-04T07:04:33;3.63;;;2.83;;
10463;SDS011;5279;42.048;24.638;2023-12-04T07:07:00;2.97;;;2.67;;
10463;SDS011;5279;42.048;24.638;2023-12-04T07:09:30;4.03;;;2.83;;
10463;SDS011;5279;42.048;24.638;2023-12-04T07:11:56;3.10;;;2.80;;
10463;SDS011;5279;42.048;24.638;2023-12-04T07:14:24;3.20;;;2.90;;
10463;SDS011;5279;42.048;24.638;2023-12-04T07:16:51;3.07;;;2.77;;
10463;SDS011;5279;42.048;24.638;2023-12-04T07:19:18;3.67;;;2.70;;
10463;SDS011;5279;42.048;24.638;2023-12-04T07:21:45;3.07;;;2.77;;
10463;SDS011;5279;42.048;24.638;2023-12-04T07:24:11;2.27;;;2.07;;
10463;SDS011;5279;42.048;24.638;2023-12-04T07:26:38;3.50;;;2.70;;
10463;SDS011;5279;42.048;24.638;2023-12-04T07:29:05;3.80;;;2.20;;
10463;SDS011;5279;42.048;24.638;2023-12-04T07:31:33;3.50;;;2.70;;
10463;SDS011;5279;42.048;24.638;2023-12-04T07:34:00;2.97;;;2.67;;
10463;SDS011;5279;42.048;24.638;2023-12-04T07:36:27;3.67;;;2.77;;
10463;SDS011;5279;42.048;24.638;2023-12-04T07:38:53;2.67;;;2.00;;
10463;SDS011;5279;42.048;24.638;2023-12-04T07:41:20;2.73;;;2.50;;
10463;SDS011;5279;42.048;24.638;2023-12-04T07:43:47;2.13;;;2.00;;
10463;SDS011;5279;42.048;24.638;2023-12-04T07:46:14;4.70;;;2.70;;
10463;SDS011;5279;42.048;24.638;2023-12-04T07:48:42;3.27;;;2.40;;
10463;SDS011;5279;42.048;24.638;2023-12-04T07:51:10;2.70;;;2.47;;
10463;SDS011;5279;42.048;24.638;2023-12-04T07:53:37;2.50;;;2.30;;
10463;SDS011;5279;42.048;24.638;2023-12-04T07:56:04;2.83;;;2.40;;
10463;SDS011;5279;42.048;24.638;2023-12-04T07:58:31;3.43;;;3.03;;
10463;SDS011;5279;42.048;24.638;2023-12-04T08:00:58;2.77;;;2.57;;
10463;SDS011;5279;42.048;24.638;2023-12-04T08:03:25;3.90;;;2.67;;
10463;SDS011;5279;42.048;24.638;2023-12-04T08:05:53;2.53;;;2.30;;
10463;SDS011;5279;42.048;24.638;2023-12-04T08:08:20;3.17;;;2.57;;
10463;SDS011;5279;42.048;24.638;2023-12-04T08:10:47;3.43;;;2.70;;
10463;SDS011;5279;42.048;24.638;2023-12-04T08:13:13;2.93;;;2.57;;
10463;SDS011;5279;42.048;24.638;2023-12-04T08:15:41;4.50;;;2.87;;
10463;SDS011;5279;42.048;24.638;2023-12-04T08:18:08;2.73;;;2.40;;
10463;SDS011;5279;42.048;24.638;2023-12-04T08:20:35;3.10;;;2.80;;
10463;SDS011;5279;42.048;24.638;2023-12-04T08:23:03;3.27;;;2.97;;
10463;SDS011;5279;42.048;24.638;2023-12-04T08:25:30;4.20;;;2.80;;
10463;SDS011;5279;42.048;24.638;2023-12-04T08:27:57;2.50;;;2.30;;
10463;SDS011;5279;42.048;24.638;2023-12-04T08:30:25;3.70;;;2.37;;
10463;SDS011;5279;42.048;24.638;2023-12-04T08:32:53;3.20;;;2.90;;
10463;SDS011;5279;42.048;24.638;2023-12-04T08:35:19;3.20;;;2.80;;
10463;SDS011;5279;42.048;24.638;2023-12-04T08:37:47;3.17;;;2.83;;
10463;SDS011;5279;42.048;24.638;2023-12-04T08:40:15;2.90;;;2.70;;
10463;SDS011;5279;42.048;24.638;2023-12-04T08:42:42;2.67;;;2.40;;
10463;SDS011;5279;42.048;24.638;2023-12-04T08:45:10;3.67;;;2.60;;
10463;SDS011;5279;42.048;24.638;2023-12-04T08:47:37;3.27;;;2.87;;
10463;SDS011;5279;42.048;24.638;2023-12-04T08:50:04;3.20;;;2.87;;
10463;SDS011;5279;42.048;24.638;2023-12-04T08:52:32;3.30;;;2.77;;
10463;SDS011;5279;42.048;24.638;2023-12-04T08:54:59;4.03;;;3.13;;
10463;SDS011;5279;42.048;24.638;2023-12-04T08:57:27;2.53;;;2.33;;
10463;SDS011;5279;42.048;24.638;2023-12-04T08:59:54;3.20;;;2.90;;
10463;SDS011;5279;42.048;24.638;2023-12-04T09:02:20;3.53;;;3.23;;
10463;SDS011;5279;42.048;24.638;2023-12-04T09:04:47;4.13;;;3.27;;
10463;SDS011;5279;42.048;24.638;2023-12-04T09:07:14;3.57;;;3.10;;
10463;SDS011;5279;42.048;24.638;2023-12-04T09:09:40;4.23;;;3.47;;
10463;SDS011;5279;42.048;24.638;2023-12-04T09:12:09;3.67;;;3.30;;
10463;SDS011;5279;42.048;24.638;2023-12-04T09:14:37;3.83;;;3.37;;
10463;SDS011;5279;42.048;24.638;2023-12-04T09:17:04;3.53;;;3.23;;
10463;SDS011;5279;42.048;24.638;2023-12-04T09:19:30;4.47;;;4.07;;
10463;SDS011;5279;42.048;24.638;2023-12-04T09:21:57;4.50;;;3.47;;
10463;SDS011;5279;42.048;24.638;2023-12-04T09:24:24;4.33;;;3.27;;
10463;SDS011;5279;42.048;24.638;2023-12-04T09:26:51;3.77;;;3.33;;
10463;SDS011;5279;42.048;24.638;2023-12-04T09:29:18;3.40;;;3.10;;
10463;SDS011;5279;42.048;24.638;2023-12-04T09:31:50;4.10;;;3.50;;
10463;SDS011;5279;42.048;24.638;2023-12-04T09:34:17;4.07;;;3.23;;
10463;SDS011;5279;42.048;24.638;2023-12-04T09:36:45;4.20;;;3.70;;
10463;SDS011;5279;42.048;24.638;2023-12-04T09:39:12;4.60;;;3.60;;
10463;SDS011;5279;42.048;24.638;2023-12-04T09:41:38;5.30;;;3.50;;
10463;SDS011;5279;42.048;24.638;2023-12-04T09:44:08;4.03;;;3.73;;
10463;SDS011;5279;42.048;24.638;2023-12-04T09:46:35;4.03;;;3.27;;
10463;SDS011;5279;42.048;24.638;2023-12-04T09:49:03;6.63;;;3.57;;
10463;SDS011;5279;42.048;24.638;2023-12-04T09:51:31;4.23;;;3.70;;
10463;SDS011;5279;42.048;24.638;2023-12-04T09:53:59;4.63;;;3.67;;
10463;SDS011;5279;42.048;24.638;2023-12-04T09:56:29;4.20;;;3.80;;
10463;SDS011;5279;42.048;24.638;2023-12-04T09:58:57;4.20;;;3.80;;
10463;SDS011;5279;42.048;24.638;2023-12-04T10:01:25;4.23;;;3.53;;
10463;SDS011;5279;42.048;24.638;2023-12-04T10:03:54;5.43;;;4.33;;
10463;SDS011;5279;42.048;24.638;2023-12-04T10:06:24;4.10;;;3.70;;
10463;SDS011;5279;42.048;24.638;2023-12-04T10:08:54;4.50;;;4.10;;
10463;SDS011;5279;42.048;24.638;2023-12-04T10:11:22;6.33;;;3.87;;
10463;SDS011;5279;42.048;24.638;2023-12-04T10:13:49;4.83;;;4.13;;
10463;SDS011;5279;42.048;24.638;2023-12-04T10:16:30;6.20;;;4.20;;
10463;SDS011;5279;42.048;24.638;2023-12-04T10:19:01;5.93;;;4.63;;
10463;SDS011;5279;42.048;24.638;2023-12-04T10:21:42;4.30;;;3.90;;
10463;SDS011;5279;42.048;24.638;2023-12-04T10:24:09;5.93;;;4.20;;
10463;SDS011;5279;42.048;24.638;2023-12-04T10:26:35;4.63;;;4.00;;
10463;SDS011;5279;42.048;24.638;2023-12-04T10:29:03;4.60;;;3.97;;
10463;SDS011;5279;42.048;24.638;2023-12-04T10:31:31;5.43;;;3.87;;
10463;SDS011;5279;42.048;24.638;2023-12-04T10:33:59;4.60;;;3.90;;
10463;SDS011;5279;42.048;24.638;2023-12-04T10:36:26;5.57;;;4.50;;
10463;SDS011;5279;42.048;24.638;2023-12-04T10:38:59;6.10;;;4.60;;
10463;SDS011;5279;42.048;24.638;2023-12-04T10:41:26;4.70;;;4.20;;
10463;SDS011;5279;42.048;24.638;2023-12-04T10:43:53;4.60;;;4.10;;
10463;SDS011;5279;42.048;24.638;2023-12-04T10:46:22;4.83;;;3.73;;
10463;SDS011;5279;42.048;24.638;2023-12-04T10:48:50;4.50;;;3.90;;
10463;SDS011;5279;42.048;24.638;2023-12-04T10:51:17;5.13;;;4.63;;
10463;SDS011;5279;42.048;24.638;2023-12-04T10:53:47;6.07;;;4.47;;
10463;SDS011;5279;42.048;24.638;2023-12-04T10:56:19;4.73;;;4.23;;
10463;SDS011;5279;42.048;24.638;2023-12-04T10:58:49;4.17;;;3.77;;
10463;SDS011;5279;42.048;24.638;2023-12-04T11:03:47;5.47;;;4.87;;
10463;SDS011;5279;42.048;24.638;2023-12-04T11:06:16;4.17;;;3.63;;
10463;SDS011;5279;42.048;24.638;2023-12-04T11:08:44;4.53;;;3.53;;
10463;SDS011;5279;42.048;24.638;2023-12-04T11:11:18;3.80;;;3.50;;
10463;SDS011;5279;42.048;24.638;2023-12-04T11:13:49;3.50;;;3.20;;
10463;SDS011;5279;42.048;24.638;2023-12-04T11:16:20;5.90;;;3.83;;
10463;SDS011;5279;42.048;24.638;2023-12-04T11:18:55;4.37;;;3.67;;
10463;SDS011;5279;42.048;24.638;2023-12-04T11:21:27;4.53;;;4.03;;
10463;SDS011;5279;42.048;24.638;2023-12-04T11:23:56;5.83;;;4.97;;
10463;SDS011;5279;42.048;24.638;2023-12-04T11:26:25;4.57;;;4.13;;
10463;SDS011;5279;42.048;24.638;2023-12-04T11:28:53;5.03;;;4.13;;
10463;SDS011;5279;42.048;24.638;2023-12-04T11:31:21;8.47;;;6.17;;
10463;SDS011;5279;42.048;24.638;2023-12-04T11:33:48;5.70;;;4.90;;
10463;SDS011;5279;42.048;24.638;2023-12-04T11:36:15;5.93;;;4.60;;
10463;SDS011;5279;42.048;24.638;2023-12-04T11:38:45;6.90;;;5.20;;
10463;SDS011;5279;42.048;24.638;2023-12-04T11:41:16;7.37;;;4.73;;
10463;SDS011;5279;42.048;24.638;2023-12-04T11:43:45;6.10;;;5.23;;
10463;SDS011;5279;42.048;24.638;2023-12-04T11:46:12;8.13;;;5.40;;
10463;SDS011;5279;42.048;24.638;2023-12-04T11:48:39;6.07;;;4.77;;
10463;SDS011;5279;42.048;24.638;2023-12-04T11:51:06;5.43;;;4.40;;
10463;SDS011;5279;42.048;24.638;2023-12-04T11:53:37;7.97;;;5.30;;
10463;SDS011;5279;42.048;24.638;2023-12-04T11:56:08;7.00;;;4.90;;
10463;SDS011;5279;42.048;24.638;2023-12-04T11:58:41;6.43;;;4.67;;
10463;SDS011;5279;42.048;24.638;2023-12-04T12:01:10;8.70;;;4.30;;
10463;SDS011;5279;42.048;24.638;2023-12-04T12:03:36;6.03;;;4.37;;
10463;SDS011;5279;42.048;24.638;2023-12-04T12:06:05;6.30;;;4.50;;
10463;SDS011;5279;42.048;24.638;2023-12-04T12:08:32;6.23;;;4.60;;
10463;SDS011;5279;42.048;24.638;2023-12-04T12:10:59;4.93;;;4.43;;
10463;SDS011;5279;42.048;24.638;2023-12-04T12:13:25;6.43;;;5.33;;
10463;SDS011;5279;42.048;24.638;2023-12-04T12:15:52;6.53;;;5.23;;
10463;SDS011;5279;42.048;24.638;2023-12-04T12:18:21;5.47;;;4.83;;
10463;SDS011;5279;42.048;24.638;2023-12-04T12:20:48;7.27;;;4.77;;
10463;SDS011;5279;42.048;24.638;2023-12-04T12:23:15;5.57;;;4.70;;
10463;SDS011;5279;42.048;24.638;2023-12-04T12:25:42;5.77;;;4.37;;
10463;SDS011;5279;42.048;24.638;2023-12-04T12:28:09;8.47;;;4.83;;
10463;SDS011;5279;42.048;24.638;2023-12-04T12:30:36;5.17;;;4.37;;
10463;SDS011;5279;42.048;24.638;2023-12-04T12:33:03;4.23;;;3.80;;
10463;SDS011;5279;42.048;24.638;2023-12-04T12:35:31;5.33;;;4.00;;
10463;SDS011;5279;42.048;24.638;2023-12-04T12:37:58;7.73;;;5.77;;
10463;SDS011;5279;42.048;24.638;2023-12-04T12:40:27;5.70;;;4.77;;
10463;SDS011;5279;42.048;24.638;2023-12-04T12:43:02;6.83;;;4.87;;
10463;SDS011;5279;42.048;24.638;2023-12-04T12:45:30;5.13;;;4.03;;
10463;SDS011;5279;42.048;24.638;2023-12-04T12:48:05;7.50;;;5.60;;
10463;SDS011;5279;42.048;24.638;2023-12-04T12:50:33;6.07;;;4.97;;
10463;SDS011;5279;42.048;24.638;2023-12-04T12:53:01;5.90;;;4.63;;
10463;SDS011;5279;42.048;24.638;2023-12-04T12:55:28;7.23;;;5.37;;
10463;SDS011;5279;42.048;24.638;2023-12-04T12:57:55;5.00;;;3.93;;
10463;SDS011;5279;42.048;24.638;2023-12-04T13:00:22;10.97;;;7.60;;
10463;SDS011;5279;42.048;24.638;2023-12-04T13:02:51;7.03;;;4.83;;
10463;SDS011;5279;42.048;24.638;2023-12-04T13:05:19;7.57;;;6.37;;
10463;SDS011;5279;42.048;24.638;2023-12-04T13:07:48;5.83;;;4.40;;
10463;SDS011;5279;42.048;24.638;2023-12-04T13:10:15;4.37;;;3.67;;
10463;SDS011;5279;42.048;24.638;2023-12-04T13:12:41;5.23;;;4.47;;
10463;SDS011;5279;42.048;24.638;2023-12-04T13:15:08;4.97;;;4.47;;
10463;SDS011;5279;42.048;24.638;2023-12-04T13:17:35;6.57;;;4.23;;
10463;SDS011;5279;42.048;24.638;2023-12-04T13:20:02;8.83;;;6.53;;
10463;SDS011;5279;42.048;24.638;2023-12-04T13:22:30;7.77;;;5.40;;
10463;SDS011;5279;42.048;24.638;2023-12-04T13:24:59;5.97;;;4.50;;
10463;SDS011;5279;42.048;24.638;2023-12-04T13:27:27;5.20;;;4.60;;
10463;SDS011;5279;42.048;24.638;2023-12-04T13:29:54;4.90;;;3.90;;
10463;SDS011;5279;42.048;24.638;2023-12-04T13:32:20;6.43;;;4.70;;
10463;SDS011;5279;42.048;24.638;2023-12-04T13:34:47;4.43;;;4.03;;
10463;SDS011;5279;42.048;24.638;2023-12-04T13:37:14;4.77;;;4.33;;
10463;SDS011;5279;42.048;24.638;2023-12-04T13:39:40;4.73;;;4.13;;
10463;SDS011;5279;42.048;24.638;2023-12-04T13:42:15;4.60;;;3.63;;
10463;SDS011;5279;42.048;24.638;2023-12-04T13:44:59;6.43;;;4.33;;
10463;SDS011;5279;42.048;24.638;2023-12-04T13:47:27;5.33;;;4.20;;
10463;SDS011;5279;42.048;24.638;2023-12-04T13:49:53;5.03;;;3.93;;
10463;SDS011;5279;42.048;24.638;2023-12-04T13:52:21;5.10;;;3.30;;
10463;SDS011;5279;42.048;24.638;2023-12-04T13:54:48;4.77;;;3.93;;
10463;SDS011;5279;42.048;24.638;2023-12-04T13:57:18;4.23;;;3.83;;
10463;SDS011;5279;42.048;24.638;2023-12-04T13:59:47;4.83;;;4.00;;
10463;SDS011;5279;42.048;24.638;2023-12-04T14:02:14;3.73;;;3.43;;
10463;SDS011;5279;42.048;24.638;2023-12-04T14:04:40;5.93;;;4.10;;
10463;SDS011;5279;42.048;24.638;2023-12-04T14:07:07;6.20;;;3.83;;
10463;SDS011;5279;42.048;24.638;2023-12-04T14:09:35;6.03;;;4.43;;
10463;SDS011;5279;42.048;24.638;2023-12-04T14:12:02;5.03;;;4.27;;
10463;SDS011;5279;42.048;24.638;2023-12-04T14:14:31;5.10;;;4.30;;
10463;SDS011;5279;42.048;24.638;2023-12-04T14:16:59;4.77;;;3.97;;
10463;SDS011;5279;42.048;24.638;2023-12-04T14:19:28;4.30;;;3.90;;
10463;SDS011;5279;42.048;24.638;2023-12-04T14:21:55;4.77;;;4.00;;
10463;SDS011;5279;42.048;24.638;2023-12-04T14:24:22;4.27;;;3.50;;
10463;SDS011;5279;42.048;24.638;2023-12-04T14:26:48;5.87;;;4.40;;
10463;SDS011;5279;42.048;24.638;2023-12-04T14:29:14;4.93;;;4.33;;
10463;SDS011;5279;42.048;24.638;2023-12-04T14:31:42;5.37;;;4.30;;
10463;SDS011;5279;42.048;24.638;2023-12-04T14:34:09;5.53;;;3.83;;
10463;SDS011;5279;42.048;24.638;2023-12-04T14:36:36;5.27;;;4.20;;
10463;SDS011;5279;42.048;24.638;2023-12-04T14:39:03;6.73;;;4.60;;
10463;SDS011;5279;42.048;24.638;2023-12-04T14:41:30;5.83;;;4.50;;
10463;SDS011;5279;42.048;24.638;2023-12-04T14:43:58;5.37;;;4.60;;
10463;SDS011;5279;42.048;24.638;2023-12-04T14:46:25;7.57;;;4.40;;
10463;SDS011;5279;42.048;24.638;2023-12-04T14:48:53;5.30;;;4.30;;
10463;SDS011;5279;42.048;24.638;2023-12-04T14:51:19;4.43;;;4.00;;
10463;SDS011;5279;42.048;24.638;2023-12-04T14:53:46;4.20;;;3.80;;